TimeEDT,TemperatureF,Dew PointF,Humidity,Sea Level PressureIn,VisibilityMPH,Wind Direction,Wind SpeedMPH,Gust SpeedMPH,PrecipitationIn,Events,Conditions,WindDirDegrees,DateUTC
12:54 AM,51.1,46.9,86,29.99,10.0,NW,6.9,-,N/A,,Clear,320,2013-07-25 04:54:00
1:54 AM,48.9,46.0,90,30.00,10.0,NNW,4.6,-,N/A,,Clear,330,2013-07-25 05:54:00
2:54 AM,48.9,46.0,90,30.01,10.0,NW,4.6,-,N/A,,Clear,320,2013-07-25 06:54:00
3:54 AM,48.0,46.0,93,30.04,10.0,Calm,Calm,-,N/A,,Clear,0,2013-07-25 07:54:00
4:54 AM,48.0,45.0,89,30.04,10.0,NNW,5.8,-,N/A,,Clear,330,2013-07-25 08:54:00
5:54 AM,48.9,46.0,90,30.07,10.0,Calm,Calm,-,N/A,,Clear,0,2013-07-25 09:54:00
6:54 AM,51.1,48.0,89,30.09,10.0,Calm,Calm,-,N/A,,Clear,0,2013-07-25 10:54:00
7:54 AM,55.9,46.9,72,30.12,10.0,NE,4.6,-,N/A,,Clear,40,2013-07-25 11:54:00
8:54 AM,59.0,46.0,62,30.12,10.0,NNW,9.2,-,N/A,,Clear,340,2013-07-25 12:54:00
9:54 AM,60.1,46.0,60,30.14,10.0,Variable,5.8,-,N/A,,Partly Cloudy,0,2013-07-25 13:54:00
10:54 AM,62.1,46.0,56,30.15,10.0,Calm,Calm,-,N/A,,Partly Cloudy,0,2013-07-25 14:54:00
11:54 AM,64.0,46.9,54,30.14,10.0,NNW,3.5,-,N/A,,Clear,340,2013-07-25 15:54:00
12:54 PM,66.9,48.0,51,30.13,10.0,Calm,Calm,-,N/A,,Clear,0,2013-07-25 16:54:00
1:54 PM,68.0,48.0,49,30.14,10.0,Calm,Calm,-,N/A,,Clear,0,2013-07-25 17:54:00
2:54 PM,69.1,48.9,49,30.14,10.0,Calm,Calm,-,N/A,,Clear,0,2013-07-25 18:54:00
3:54 PM,71.1,48.0,44,30.15,10.0,Calm,Calm,-,N/A,,Clear,0,2013-07-25 19:54:00
4:54 PM,71.1,48.9,45,30.14,10.0,East,3.5,-,N/A,,Clear,100,2013-07-25 20:54:00
5:54 PM,71.1,50.0,47,30.14,10.0,Variable,6.9,-,N/A,,Clear,0,2013-07-25 21:54:00
6:54 PM,69.1,51.1,53,30.15,10.0,Calm,Calm,-,N/A,,Clear,0,2013-07-25 22:54:00
7:54 PM,64.9,53.1,65,30.16,10.0,Calm,Calm,-,N/A,,Clear,0,2013-07-25 23:54:00
8:54 PM,62.1,54.0,75,30.17,10.0,Calm,Calm,-,N/A,,Clear,0,2013-07-26 00:54:00
9:54 PM,61.0,53.1,75,30.17,10.0,Calm,Calm,-,N/A,,Clear,0,2013-07-26 01:54:00
10:54 PM,57.9,53.1,84,30.18,10.0,Calm,Calm,-,N/A,,Clear,0,2013-07-26 02:54:00
11:54 PM,59.0,53.1,81,30.18,10.0,Calm,Calm,-,N/A,,Clear,0,2013-07-26 03:54:00